sensor_id;sensor_type;location;lat;lon;timestamp;temperature;humidity
22456;DHT22;11395;53.204;6.502;2023-02-28T00:00:23;21.30;56.50
22456;DHT22;11395;53.204;6.502;2023-02-28T00:02:50;21.30;56.00
22456;DHT22;11395;53.204;6.502;2023-02-28T00:05:20;21.30;55.80
22456;DHT22;11395;53.204;6.502;2023-02-28T00:07:47;21.20;57.00
22456;DHT22;11395;53.204;6.502;2023-02-28T00:10:19;21.20;56.40
22456;DHT22;11395;53.204;6.502;2023-02-28T00:12:50;21.20;57.00
22456;DHT22;11395;53.204;6.502;2023-02-28T00:15:17;21.10;57.30
22456;DHT22;11395;53.204;6.502;2023-02-28T00:17:43;21.10;56.40
22456;DHT22;11395;53.204;6.502;2023-02-28T00:20:11;21.10;56.10
22456;DHT22;11395;53.204;6.502;2023-02-28T00:22:39;21.00;56.50
22456;DHT22;11395;53.204;6.502;2023-02-28T00:25:06;21.10;56.90
22456;DHT22;11395;53.204;6.502;2023-02-28T00:27:34;21.10;56.50
22456;DHT22;11395;53.204;6.502;2023-02-28T00:30:00;21.00;56.80
22456;DHT22;11395;53.204;6.502;2023-02-28T00:32:27;21.00;56.40
22456;DHT22;11395;53.204;6.502;2023-02-28T00:34:53;20.90;56.40
22456;DHT22;11395;53.204;6.502;2023-02-28T00:37:19;20.90;56.70
22456;DHT22;11395;53.204;6.502;2023-02-28T00:39:45;20.90;56.90
22456;DHT22;11395;53.204;6.502;2023-02-28T00:42:11;20.80;56.80
22456;DHT22;11395;53.204;6.502;2023-02-28T00:44:37;20.80;56.80
22456;DHT22;11395;53.204;6.502;2023-02-28T00:47:04;20.70;56.70
22456;DHT22;11395;53.204;6.502;2023-02-28T00:49:30;20.80;56.90
22456;DHT22;11395;53.204;6.502;2023-02-28T00:51:57;20.70;56.80
22456;DHT22;11395;53.204;6.502;2023-02-28T00:54:23;20.70;57.00
22456;DHT22;11395;53.204;6.502;2023-02-28T00:56:50;20.70;57.10
22456;DHT22;11395;53.204;6.502;2023-02-28T00:59:17;20.70;57.00
22456;DHT22;11395;53.204;6.502;2023-02-28T01:01:46;20.60;57.10
22456;DHT22;11395;53.204;6.502;2023-02-28T01:04:13;20.60;57.80
22456;DHT22;11395;53.204;6.502;2023-02-28T01:06:40;20.60;57.30
22456;DHT22;11395;53.204;6.502;2023-02-28T01:09:10;20.60;57.20
22456;DHT22;11395;53.204;6.502;2023-02-28T01:11:37;20.60;57.50
22456;DHT22;11395;53.204;6.502;2023-02-28T01:14:03;20.60;56.80
22456;DHT22;11395;53.204;6.502;2023-02-28T01:16:31;20.70;57.10
22456;DHT22;11395;53.204;6.502;2023-02-28T01:18:57;20.50;57.00
22456;DHT22;11395;53.204;6.502;2023-02-28T01:21:24;20.50;56.90
22456;DHT22;11395;53.204;6.502;2023-02-28T01:23:51;20.50;57.50
22456;DHT22;11395;53.204;6.502;2023-02-28T01:26:19;20.50;57.10
22456;DHT22;11395;53.204;6.502;2023-02-28T01:28:46;20.50;57.90
22456;DHT22;11395;53.204;6.502;2023-02-28T01:31:13;20.50;57.00
22456;DHT22;11395;53.204;6.502;2023-02-28T01:33:40;20.50;57.20
22456;DHT22;11395;53.204;6.502;2023-02-28T01:36:18;20.40;57.30
22456;DHT22;11395;53.204;6.502;2023-02-28T01:38:45;20.40;59.20
22456;DHT22;11395;53.204;6.502;2023-02-28T01:41:27;20.40;57.70
22456;DHT22;11395;53.204;6.502;2023-02-28T01:44:06;20.40;57.90
22456;DHT22;11395;53.204;6.502;2023-02-28T01:46:34;20.30;57.80
22456;DHT22;11395;53.204;6.502;2023-02-28T01:49:05;20.30;58.50
22456;DHT22;11395;53.204;6.502;2023-02-28T01:51:37;20.20;58.80
22456;DHT22;11395;53.204;6.502;2023-02-28T01:54:12;20.20;59.00
22456;DHT22;11395;53.204;6.502;2023-02-28T01:56:47;20.20;59.40
22456;DHT22;11395;53.204;6.502;2023-02-28T01:59:22;20.20;57.70
22456;DHT22;11395;53.204;6.502;2023-02-28T02:01:49;20.20;59.50
22456;DHT22;11395;53.204;6.502;2023-02-28T02:04:16;20.20;57.90
22456;DHT22;11395;53.204;6.502;2023-02-28T02:06:47;20.10;58.00
22456;DHT22;11395;53.204;6.502;2023-02-28T02:09:14;20.10;59.50
22456;DHT22;11395;53.204;6.502;2023-02-28T02:11:42;20.00;57.90
22456;DHT22;11395;53.204;6.502;2023-02-28T02:25:38;19.90;58.90
22456;DHT22;11395;53.204;6.502;2023-02-28T02:36:42;19.80;57.00
22456;DHT22;11395;53.204;6.502;2023-02-28T02:39:31;19.80;58.70
22456;DHT22;11395;53.204;6.502;2023-02-28T02:42:01;19.80;58.70
22456;DHT22;11395;53.204;6.502;2023-02-28T02:44:45;19.80;59.50
22456;DHT22;11395;53.204;6.502;2023-02-28T02:47:19;19.70;60.10
22456;DHT22;11395;53.204;6.502;2023-02-28T02:49:52;19.70;60.00
22456;DHT22;11395;53.204;6.502;2023-02-28T02:52:23;19.70;60.10
22456;DHT22;11395;53.204;6.502;2023-02-28T02:54:54;19.70;59.80
22456;DHT22;11395;53.204;6.502;2023-02-28T02:57:27;19.60;59.90
22456;DHT22;11395;53.204;6.502;2023-02-28T02:59:56;19.60;60.10
22456;DHT22;11395;53.204;6.502;2023-02-28T03:02:23;19.60;59.00
22456;DHT22;11395;53.204;6.502;2023-02-28T03:04:56;19.60;59.60
22456;DHT22;11395;53.204;6.502;2023-02-28T03:07:27;19.50;60.00
22456;DHT22;11395;53.204;6.502;2023-02-28T03:09:55;19.50;59.60
22456;DHT22;11395;53.204;6.502;2023-02-28T03:12:25;19.50;59.80
22456;DHT22;11395;53.204;6.502;2023-02-28T03:15:16;19.50;60.10
22456;DHT22;11395;53.204;6.502;2023-02-28T03:18:07;19.40;59.50
22456;DHT22;11395;53.204;6.502;2023-02-28T03:20:58;19.40;57.70
22456;DHT22;11395;53.204;6.502;2023-02-28T03:26:21;19.40;61.00
22456;DHT22;11395;53.204;6.502;2023-02-28T03:31:31;19.30;59.20
22456;DHT22;11395;53.204;6.502;2023-02-28T03:34:10;19.30;60.90
22456;DHT22;11395;53.204;6.502;2023-02-28T03:36:42;19.30;61.40
22456;DHT22;11395;53.204;6.502;2023-02-28T03:39:20;19.30;61.00
22456;DHT22;11395;53.204;6.502;2023-02-28T03:41:50;19.30;59.60
22456;DHT22;11395;53.204;6.502;2023-02-28T03:44:27;19.20;59.50
22456;DHT22;11395;53.204;6.502;2023-02-28T03:47:09;19.20;60.40
22456;DHT22;11395;53.204;6.502;2023-02-28T03:49:51;19.10;60.00
22456;DHT22;11395;53.204;6.502;2023-02-28T03:52:21;19.20;61.80
22456;DHT22;11395;53.204;6.502;2023-02-28T03:54:52;19.10;61.00
22456;DHT22;11395;53.204;6.502;2023-02-28T03:57:36;19.10;61.20
22456;DHT22;11395;53.204;6.502;2023-02-28T04:00:14;19.10;60.10
22456;DHT22;11395;53.204;6.502;2023-02-28T04:02:44;19.10;59.80
22456;DHT22;11395;53.204;6.502;2023-02-28T04:05:11;19.10;59.70
22456;DHT22;11395;53.204;6.502;2023-02-28T04:07:37;19.10;59.30
22456;DHT22;11395;53.204;6.502;2023-02-28T04:10:04;19.20;59.30
22456;DHT22;11395;53.204;6.502;2023-02-28T04:12:30;19.20;59.40
22456;DHT22;11395;53.204;6.502;2023-02-28T04:14:56;19.20;58.80
22456;DHT22;11395;53.204;6.502;2023-02-28T04:17:23;19.40;58.90
22456;DHT22;11395;53.204;6.502;2023-02-28T04:19:49;19.40;58.60
22456;DHT22;11395;53.204;6.502;2023-02-28T04:22:15;19.60;58.40
22456;DHT22;11395;53.204;6.502;2023-02-28T04:24:43;19.70;58.00
22456;DHT22;11395;53.204;6.502;2023-02-28T04:27:09;19.90;57.60
22456;DHT22;11395;53.204;6.502;2023-02-28T04:29:36;20.00;57.40
22456;DHT22;11395;53.204;6.502;2023-02-28T04:32:03;20.20;57.10
22456;DHT22;11395;53.204;6.502;2023-02-28T04:34:31;20.30;57.60
22456;DHT22;11395;53.204;6.502;2023-02-28T04:36:58;20.50;57.70
22456;DHT22;11395;53.204;6.502;2023-02-28T04:39:26;20.60;56.80
22456;DHT22;11395;53.204;6.502;2023-02-28T04:41:52;20.70;56.30
22456;DHT22;11395;53.204;6.502;2023-02-28T04:44:18;20.80;56.00
22456;DHT22;11395;53.204;6.502;2023-02-28T04:46:44;20.90;56.00
22456;DHT22;11395;53.204;6.502;2023-02-28T04:49:11;21.00;55.70
22456;DHT22;11395;53.204;6.502;2023-02-28T04:51:38;21.00;56.90
22456;DHT22;11395;53.204;6.502;2023-02-28T04:54:05;21.10;55.90
22456;DHT22;11395;53.204;6.502;2023-02-28T04:56:31;21.10;55.80
22456;DHT22;11395;53.204;6.502;2023-02-28T04:58:58;21.10;55.90
22456;DHT22;11395;53.204;6.502;2023-02-28T05:01:29;21.10;55.50
22456;DHT22;11395;53.204;6.502;2023-02-28T05:03:57;21.10;57.00
22456;DHT22;11395;53.204;6.502;2023-02-28T05:06:25;21.00;56.30
22456;DHT22;11395;53.204;6.502;2023-02-28T05:08:52;21.30;56.10
22456;DHT22;11395;53.204;6.502;2023-02-28T05:11:23;21.30;55.20
22456;DHT22;11395;53.204;6.502;2023-02-28T05:13:51;21.40;54.00
22456;DHT22;11395;53.204;6.502;2023-02-28T05:16:18;21.50;55.30
22456;DHT22;11395;53.204;6.502;2023-02-28T05:18:44;21.70;55.10
22456;DHT22;11395;53.204;6.502;2023-02-28T05:21:29;21.70;54.40
22456;DHT22;11395;53.204;6.502;2023-02-28T05:23:58;21.90;55.90
22456;DHT22;11395;53.204;6.502;2023-02-28T05:26:25;22.00;54.80
22456;DHT22;11395;53.204;6.502;2023-02-28T05:28:52;22.10;54.10
22456;DHT22;11395;53.204;6.502;2023-02-28T05:31:18;22.30;53.50
22456;DHT22;11395;53.204;6.502;2023-02-28T05:33:44;22.40;53.30
22456;DHT22;11395;53.204;6.502;2023-02-28T05:36:10;22.50;53.10
22456;DHT22;11395;53.204;6.502;2023-02-28T05:38:36;22.70;52.70
22456;DHT22;11395;53.204;6.502;2023-02-28T05:41:07;22.80;52.70
22456;DHT22;11395;53.204;6.502;2023-02-28T05:43:35;22.90;53.80
22456;DHT22;11395;53.204;6.502;2023-02-28T05:46:05;23.00;52.70
22456;DHT22;11395;53.204;6.502;2023-02-28T05:48:33;23.20;53.50
22456;DHT22;11395;53.204;6.502;2023-02-28T05:51:00;23.30;52.40
22456;DHT22;11395;53.204;6.502;2023-02-28T05:53:26;23.40;51.80
22456;DHT22;11395;53.204;6.502;2023-02-28T05:55:52;23.50;51.70
22456;DHT22;11395;53.204;6.502;2023-02-28T05:58:18;23.60;51.60
22456;DHT22;11395;53.204;6.502;2023-02-28T06:00:45;23.70;51.40
22456;DHT22;11395;53.204;6.502;2023-02-28T06:03:11;23.70;51.40
22456;DHT22;11395;53.204;6.502;2023-02-28T06:05:37;23.80;51.30
22456;DHT22;11395;53.204;6.502;2023-02-28T06:08:04;23.80;51.50
22456;DHT22;11395;53.204;6.502;2023-02-28T06:10:36;23.90;51.50
22456;DHT22;11395;53.204;6.502;2023-02-28T06:13:03;23.90;51.90
22456;DHT22;11395;53.204;6.502;2023-02-28T06:15:30;24.00;52.00
22456;DHT22;11395;53.204;6.502;2023-02-28T06:17:57;24.00;52.00
22456;DHT22;11395;53.204;6.502;2023-02-28T06:20:24;24.00;52.00
22456;DHT22;11395;53.204;6.502;2023-02-28T06:22:50;24.00;51.90
22456;DHT22;11395;53.204;6.502;2023-02-28T06:25:17;24.00;52.00
22456;DHT22;11395;53.204;6.502;2023-02-28T06:27:43;23.90;52.00
22456;DHT22;11395;53.204;6.502;2023-02-28T06:30:11;23.90;51.80
22456;DHT22;11395;53.204;6.502;2023-02-28T06:32:37;23.90;52.30
22456;DHT22;11395;53.204;6.502;2023-02-28T06:35:03;23.90;52.40
22456;DHT22;11395;53.204;6.502;2023-02-28T06:37:33;23.80;51.90
22456;DHT22;11395;53.204;6.502;2023-02-28T06:39:59;23.80;52.90
22456;DHT22;11395;53.204;6.502;2023-02-28T06:42:25;23.80;51.90
22456;DHT22;11395;53.204;6.502;2023-02-28T06:44:55;23.70;52.10
22456;DHT22;11395;53.204;6.502;2023-02-28T06:47:22;23.70;52.40
22456;DHT22;11395;53.204;6.502;2023-02-28T06:49:48;23.70;52.00
22456;DHT22;11395;53.204;6.502;2023-02-28T06:52:14;23.70;52.10
22456;DHT22;11395;53.204;6.502;2023-02-28T06:54:40;23.70;52.00
22456;DHT22;11395;53.204;6.502;2023-02-28T06:57:07;23.70;52.00
22456;DHT22;11395;53.204;6.502;2023-02-28T06:59:33;23.80;51.90
22456;DHT22;11395;53.204;6.502;2023-02-28T07:02:01;23.80;51.90
22456;DHT22;11395;53.204;6.502;2023-02-28T07:04:28;23.90;52.20
22456;DHT22;11395;53.204;6.502;2023-02-28T07:06:55;24.00;52.20
22456;DHT22;11395;53.204;6.502;2023-02-28T07:09:23;24.00;52.60
22456;DHT22;11395;53.204;6.502;2023-02-28T07:11:49;24.10;52.20
22456;DHT22;11395;53.204;6.502;2023-02-28T07:14:15;24.20;51.90
22456;DHT22;11395;53.204;6.502;2023-02-28T07:16:42;24.20;58.20
22456;DHT22;11395;53.204;6.502;2023-02-28T07:19:09;24.20;58.60
22456;DHT22;11395;53.204;6.502;2023-02-28T07:21:35;24.30;58.90
22456;DHT22;11395;53.204;6.502;2023-02-28T07:24:01;24.20;58.70
22456;DHT22;11395;53.204;6.502;2023-02-28T07:26:28;24.30;59.00
22456;DHT22;11395;53.204;6.502;2023-02-28T07:31:20;24.20;64.30
22456;DHT22;11395;53.204;6.502;2023-02-28T07:33:47;24.20;66.40
22456;DHT22;11395;53.204;6.502;2023-02-28T07:36:15;24.20;66.70
22456;DHT22;11395;53.204;6.502;2023-02-28T07:38:44;24.20;67.20
22456;DHT22;11395;53.204;6.502;2023-02-28T07:41:12;24.10;67.00
22456;DHT22;11395;53.204;6.502;2023-02-28T07:43:39;24.10;65.90
22456;DHT22;11395;53.204;6.502;2023-02-28T07:46:10;24.10;66.30
22456;DHT22;11395;53.204;6.502;2023-02-28T07:48:37;24.10;65.60
22456;DHT22;11395;53.204;6.502;2023-02-28T07:51:04;23.90;66.40
22456;DHT22;11395;53.204;6.502;2023-02-28T07:53:30;24.00;65.80
22456;DHT22;11395;53.204;6.502;2023-02-28T07:55:57;23.90;65.70
22456;DHT22;11395;53.204;6.502;2023-02-28T07:58:25;23.90;66.80
22456;DHT22;11395;53.204;6.502;2023-02-28T08:00:52;23.80;66.70
22456;DHT22;11395;53.204;6.502;2023-02-28T08:03:19;23.80;66.60
22456;DHT22;11395;53.204;6.502;2023-02-28T08:05:47;23.80;67.20
22456;DHT22;11395;53.204;6.502;2023-02-28T08:08:14;23.80;66.80
22456;DHT22;11395;53.204;6.502;2023-02-28T08:10:41;23.80;66.80
22456;DHT22;11395;53.204;6.502;2023-02-28T08:13:07;23.90;66.80
22456;DHT22;11395;53.204;6.502;2023-02-28T08:15:34;24.00;66.80
22456;DHT22;11395;53.204;6.502;2023-02-28T08:18:00;24.00;66.60
22456;DHT22;11395;53.204;6.502;2023-02-28T08:20:27;24.10;66.50
22456;DHT22;11395;53.204;6.502;2023-02-28T08:22:53;24.20;66.70
22456;DHT22;11395;53.204;6.502;2023-02-28T08:25:19;24.20;66.50
22456;DHT22;11395;53.204;6.502;2023-02-28T08:27:45;24.20;66.60
22456;DHT22;11395;53.204;6.502;2023-02-28T08:30:13;24.20;66.50
22456;DHT22;11395;53.204;6.502;2023-02-28T08:32:40;24.20;67.40
22456;DHT22;11395;53.204;6.502;2023-02-28T08:35:07;24.30;67.20
22456;DHT22;11395;53.204;6.502;2023-02-28T08:37:35;24.20;66.40
22456;DHT22;11395;53.204;6.502;2023-02-28T08:40:01;24.30;67.50
22456;DHT22;11395;53.204;6.502;2023-02-28T08:42:30;24.30;67.90
22456;DHT22;11395;53.204;6.502;2023-02-28T08:44:56;24.20;67.70
22456;DHT22;11395;53.204;6.502;2023-02-28T08:47:22;24.30;67.80
22456;DHT22;11395;53.204;6.502;2023-02-28T08:49:48;24.30;69.80
22456;DHT22;11395;53.204;6.502;2023-02-28T09:09:23;24.10;73.40
22456;DHT22;11395;53.204;6.502;2023-02-28T09:11:49;24.10;70.90
22456;DHT22;11395;53.204;6.502;2023-02-28T09:14:15;24.00;70.70
22456;DHT22;11395;53.204;6.502;2023-02-28T16:18:30;23.20;82.80
22456;DHT22;11395;53.204;6.502;2023-02-28T16:20:56;23.30;82.80
22456;DHT22;11395;53.204;6.502;2023-02-28T16:23:23;23.40;82.20
22456;DHT22;11395;53.204;6.502;2023-02-28T16:25:49;23.40;82.10
22456;DHT22;11395;53.204;6.502;2023-02-28T17:44:39;23.00;81.70
22456;DHT22;11395;53.204;6.502;2023-02-28T17:47:05;23.20;82.60
22456;DHT22;11395;53.204;6.502;2023-02-28T17:49:31;23.20;81.20
22456;DHT22;11395;53.204;6.502;2023-02-28T17:51:59;23.20;80.30
22456;DHT22;11395;53.204;6.502;2023-02-28T17:54:25;23.20;79.70
22456;DHT22;11395;53.204;6.502;2023-02-28T17:56:51;23.20;78.70
22456;DHT22;11395;53.204;6.502;2023-02-28T17:59:17;23.20;80.60
22456;DHT22;11395;53.204;6.502;2023-02-28T18:01:43;23.20;79.30
22456;DHT22;11395;53.204;6.502;2023-02-28T18:04:09;23.20;79.60
22456;DHT22;11395;53.204;6.502;2023-02-28T18:06:45;23.20;80.60
22456;DHT22;11395;53.204;6.502;2023-02-28T18:09:18;23.20;78.50
22456;DHT22;11395;53.204;6.502;2023-02-28T18:11:44;23.10;80.80
22456;DHT22;11395;53.204;6.502;2023-02-28T18:14:18;23.10;76.60
22456;DHT22;11395;53.204;6.502;2023-02-28T18:16:45;23.10;81.40
22456;DHT22;11395;53.204;6.502;2023-02-28T18:19:12;23.10;78.10
22456;DHT22;11395;53.204;6.502;2023-02-28T18:21:47;23.00;79.60
22456;DHT22;11395;53.204;6.502;2023-02-28T18:24:14;22.90;82.70
22456;DHT22;11395;53.204;6.502;2023-02-28T18:26:41;22.90;81.20
22456;DHT22;11395;53.204;6.502;2023-02-28T18:29:08;22.80;79.00
22456;DHT22;11395;53.204;6.502;2023-02-28T18:31:41;22.90;78.50
22456;DHT22;11395;53.204;6.502;2023-02-28T18:34:07;22.80;80.10
22456;DHT22;11395;53.204;6.502;2023-02-28T18:36:33;22.70;79.30
22456;DHT22;11395;53.204;6.502;2023-02-28T18:38:59;22.80;80.00
22456;DHT22;11395;53.204;6.502;2023-02-28T18:41:25;22.80;79.30
22456;DHT22;11395;53.204;6.502;2023-02-28T18:43:53;22.80;79.20
22456;DHT22;11395;53.204;6.502;2023-02-28T18:46:20;22.90;78.70
22456;DHT22;11395;53.204;6.502;2023-02-28T18:48:47;23.00;79.50
22456;DHT22;11395;53.204;6.502;2023-02-28T18:51:19;23.10;79.20
22456;DHT22;11395;53.204;6.502;2023-02-28T18:53:46;23.20;78.20
22456;DHT22;11395;53.204;6.502;2023-02-28T18:56:14;23.20;78.70
22456;DHT22;11395;53.204;6.502;2023-02-28T18:58:41;23.30;78.90
22456;DHT22;11395;53.204;6.502;2023-02-28T19:01:27;23.40;78.60
22456;DHT22;11395;53.204;6.502;2023-02-28T19:03:56;23.50;80.50
22456;DHT22;11395;53.204;6.502;2023-02-28T19:06:23;23.50;77.90
22456;DHT22;11395;53.204;6.502;2023-02-28T19:08:54;23.60;77.80
22456;DHT22;11395;53.204;6.502;2023-02-28T19:11:21;23.60;79.10
22456;DHT22;11395;53.204;6.502;2023-02-28T19:13:47;23.60;77.60
22456;DHT22;11395;53.204;6.502;2023-02-28T19:16:16;23.60;77.50
22456;DHT22;11395;53.204;6.502;2023-02-28T19:18:42;23.60;77.90
22456;DHT22;11395;53.204;6.502;2023-02-28T19:21:10;23.60;77.50
22456;DHT22;11395;53.204;6.502;2023-02-28T19:23:38;23.60;77.80
22456;DHT22;11395;53.204;6.502;2023-02-28T19:26:09;23.50;77.60
22456;DHT22;11395;53.204;6.502;2023-02-28T19:28:36;23.60;76.30
22456;DHT22;11395;53.204;6.502;2023-02-28T19:31:03;23.50;77.90
22456;DHT22;11395;53.204;6.502;2023-02-28T19:33:30;23.50;77.60
22456;DHT22;11395;53.204;6.502;2023-02-28T19:36:00;23.40;77.40
22456;DHT22;11395;53.204;6.502;2023-02-28T19:38:27;23.30;78.50
22456;DHT22;11395;53.204;6.502;2023-02-28T19:41:04;23.40;77.60
22456;DHT22;11395;53.204;6.502;2023-02-28T19:43:31;23.30;78.50
22456;DHT22;11395;53.204;6.502;2023-02-28T19:45:57;23.30;76.80
22456;DHT22;11395;53.204;6.502;2023-02-28T19:48:24;23.30;76.70
22456;DHT22;11395;53.204;6.502;2023-02-28T19:51:04;23.30;77.30
22456;DHT22;11395;53.204;6.502;2023-02-28T19:53:32;23.20;76.90
22456;DHT22;11395;53.204;6.502;2023-02-28T19:55:59;23.10;78.20
22456;DHT22;11395;53.204;6.502;2023-02-28T19:58:26;23.20;78.00
22456;DHT22;11395;53.204;6.502;2023-02-28T20:00:52;23.10;77.70
22456;DHT22;11395;53.204;6.502;2023-02-28T20:03:18;23.00;78.40
22456;DHT22;11395;53.204;6.502;2023-02-28T20:05:46;23.00;77.80
22456;DHT22;11395;53.204;6.502;2023-02-28T20:08:13;23.00;78.10
22456;DHT22;11395;53.204;6.502;2023-02-28T20:10:39;23.00;77.70
22456;DHT22;11395;53.204;6.502;2023-02-28T20:13:06;23.10;77.80
22456;DHT22;11395;53.204;6.502;2023-02-28T20:15:32;23.10;77.90
22456;DHT22;11395;53.204;6.502;2023-02-28T20:17:58;23.10;77.90
22456;DHT22;11395;53.204;6.502;2023-02-28T20:20:27;23.20;76.50
22456;DHT22;11395;53.204;6.502;2023-02-28T20:22:53;23.20;77.50
22456;DHT22;11395;53.204;6.502;2023-02-28T20:25:19;23.30;77.20
22456;DHT22;11395;53.204;6.502;2023-02-28T20:27:45;23.30;76.90
22456;DHT22;11395;53.204;6.502;2023-02-28T20:30:12;23.40;77.10
22456;DHT22;11395;53.204;6.502;2023-02-28T20:32:38;23.40;76.90
22456;DHT22;11395;53.204;6.502;2023-02-28T20:35:08;23.40;76.90
22456;DHT22;11395;53.204;6.502;2023-02-28T20:37:37;23.40;78.50
22456;DHT22;11395;53.204;6.502;2023-02-28T20:40:04;23.40;77.40
22456;DHT22;11395;53.204;6.502;2023-02-28T20:42:31;23.40;76.90
22456;DHT22;11395;53.204;6.502;2023-02-28T20:44:57;23.40;76.60
22456;DHT22;11395;53.204;6.502;2023-02-28T20:47:23;23.40;76.60
22456;DHT22;11395;53.204;6.502;2023-02-28T20:49:49;23.40;76.80
22456;DHT22;11395;53.204;6.502;2023-02-28T20:52:16;23.40;76.70
22456;DHT22;11395;53.204;6.502;2023-02-28T20:54:42;23.40;76.70
22456;DHT22;11395;53.204;6.502;2023-02-28T20:57:08;23.30;76.50
22456;DHT22;11395;53.204;6.502;2023-02-28T20:59:34;23.30;76.50
22456;DHT22;11395;53.204;6.502;2023-02-28T21:02:00;23.20;76.80
22456;DHT22;11395;53.204;6.502;2023-02-28T21:04:26;23.20;77.10
22456;DHT22;11395;53.204;6.502;2023-02-28T21:06:53;23.20;77.10
22456;DHT22;11395;53.204;6.502;2023-02-28T21:09:19;23.10;76.80
22456;DHT22;11395;53.204;6.502;2023-02-28T21:11:45;23.10;77.40
22456;DHT22;11395;53.204;6.502;2023-02-28T21:14:15;23.10;77.40
22456;DHT22;11395;53.204;6.502;2023-02-28T21:16:43;23.10;79.20
22456;DHT22;11395;53.204;6.502;2023-02-28T21:19:10;23.10;77.90
22456;DHT22;11395;53.204;6.502;2023-02-28T21:21:39;23.00;78.30
22456;DHT22;11395;53.204;6.502;2023-02-28T21:24:19;23.10;78.80
22456;DHT22;11395;53.204;6.502;2023-02-28T21:26:46;23.10;79.40
22456;DHT22;11395;53.204;6.502;2023-02-28T21:29:13;23.20;78.30
22456;DHT22;11395;53.204;6.502;2023-02-28T21:31:39;23.20;77.60
22456;DHT22;11395;53.204;6.502;2023-02-28T21:34:07;23.20;77.20
22456;DHT22;11395;53.204;6.502;2023-02-28T21:36:39;23.30;77.60
22456;DHT22;11395;53.204;6.502;2023-02-28T21:39:17;23.30;78.70
22456;DHT22;11395;53.204;6.502;2023-02-28T21:41:44;23.30;76.90
22456;DHT22;11395;53.204;6.502;2023-02-28T21:44:12;23.30;76.70
22456;DHT22;11395;53.204;6.502;2023-02-28T21:46:44;23.30;77.30
22456;DHT22;11395;53.204;6.502;2023-02-28T21:49:11;23.30;77.40
22456;DHT22;11395;53.204;6.502;2023-02-28T21:51:37;23.30;77.00
22456;DHT22;11395;53.204;6.502;2023-02-28T21:54:04;23.30;76.30
22456;DHT22;11395;53.204;6.502;2023-02-28T21:56:32;23.30;76.10
22456;DHT22;11395;53.204;6.502;2023-02-28T21:58:59;23.30;77.30
22456;DHT22;11395;53.204;6.502;2023-02-28T22:01:29;23.70;76.90
22456;DHT22;11395;53.204;6.502;2023-02-28T22:03:57;23.20;78.10
22456;DHT22;11395;53.204;6.502;2023-02-28T22:06:26;23.10;76.80
22456;DHT22;11395;53.204;6.502;2023-02-28T22:08:53;23.10;77.40
22456;DHT22;11395;53.204;6.502;2023-02-28T22:11:21;23.10;77.20
22456;DHT22;11395;53.204;6.502;2023-02-28T22:13:47;23.10;77.30
22456;DHT22;11395;53.204;6.502;2023-02-28T22:16:17;23.00;77.10
22456;DHT22;11395;53.204;6.502;2023-02-28T22:18:44;22.90;77.60
22456;DHT22;11395;53.204;6.502;2023-02-28T22:21:11;22.90;78.10
22456;DHT22;11395;53.204;6.502;2023-02-28T22:23:39;22.90;77.70
22456;DHT22;11395;53.204;6.502;2023-02-28T22:26:08;22.80;77.60
22456;DHT22;11395;53.204;6.502;2023-02-28T22:28:35;22.70;78.10
22456;DHT22;11395;53.204;6.502;2023-02-28T22:31:25;22.80;77.80
22456;DHT22;11395;53.204;6.502;2023-02-28T22:34:06;22.70;77.50
22456;DHT22;11395;53.204;6.502;2023-02-28T22:36:34;22.70;77.20
22456;DHT22;11395;53.204;6.502;2023-02-28T22:39:01;22.50;78.30
22456;DHT22;11395;53.204;6.502;2023-02-28T22:41:28;22.50;78.00
22456;DHT22;11395;53.204;6.502;2023-02-28T22:43:58;22.50;78.10
22456;DHT22;11395;53.204;6.502;2023-02-28T22:46:26;22.30;78.70
22456;DHT22;11395;53.204;6.502;2023-02-28T22:48:52;22.40;78.70
22456;DHT22;11395;53.204;6.502;2023-02-28T22:51:23;22.30;77.90
22456;DHT22;11395;53.204;6.502;2023-02-28T22:53:51;22.20;79.80
22456;DHT22;11395;53.204;6.502;2023-02-28T22:56:20;22.10;78.50
22456;DHT22;11395;53.204;6.502;2023-02-28T22:58:51;22.10;79.10
22456;DHT22;11395;53.204;6.502;2023-02-28T23:01:19;22.10;77.30
22456;DHT22;11395;53.204;6.502;2023-02-28T23:03:45;22.00;79.40
22456;DHT22;11395;53.204;6.502;2023-02-28T23:06:31;21.90;78.40
22456;DHT22;11395;53.204;6.502;2023-02-28T23:09:02;21.90;78.70
22456;DHT22;11395;53.204;6.502;2023-02-28T23:11:32;21.90;80.10
22456;DHT22;11395;53.204;6.502;2023-02-28T23:13:59;21.80;80.10
22456;DHT22;11395;53.204;6.502;2023-02-28T23:16:52;21.80;79.30
22456;DHT22;11395;53.204;6.502;2023-02-28T23:19:24;21.80;79.60
22456;DHT22;11395;53.204;6.502;2023-02-28T23:21:52;21.60;79.80
22456;DHT22;11395;53.204;6.502;2023-02-28T23:24:20;21.60;79.60
22456;DHT22;11395;53.204;6.502;2023-02-28T23:26:49;21.50;81.30
22456;DHT22;11395;53.204;6.502;2023-02-28T23:29:17;21.50;80.50
22456;DHT22;11395;53.204;6.502;2023-02-28T23:31:44;21.40;80.30
22456;DHT22;11395;53.204;6.502;2023-02-28T23:34:11;21.40;79.40
22456;DHT22;11395;53.204;6.502;2023-02-28T23:36:38;21.40;79.80
22456;DHT22;11395;53.204;6.502;2023-02-28T23:39:12;21.30;80.10
22456;DHT22;11395;53.204;6.502;2023-02-28T23:41:38;21.30;80.10
22456;DHT22;11395;53.204;6.502;2023-02-28T23:44:04;21.30;79.50
22456;DHT22;11395;53.204;6.502;2023-02-28T23:46:31;21.30;79.80
22456;DHT22;11395;53.204;6.502;2023-02-28T23:48:58;21.20;79.80
22456;DHT22;11395;53.204;6.502;2023-02-28T23:51:24;21.20;80.30
22456;DHT22;11395;53.204;6.502;2023-02-28T23:53:51;21.10;79.80
22456;DHT22;11395;53.204;6.502;2023-02-28T23:56:20;21.10;80.80
22456;DHT22;11395;53.204;6.502;2023-02-28T23:58:46;21.10;81.10
